Time;durP1;ratioP1;P1;durP2;ratioP2;P2;SDS_P1;SDS_P2;PMS_P1;PMS_P2;Temp;Humidity;BMP_temperature;BMP_pressure;BME280_temperature;BME280_humidity;BME280_pressure;Samples;Min_cycle;Max_cycle;Signal;HPM_P1;HPM_P2
2021/03/14 00:02:18;;;;;;;15.15;2.47;;;;;;;;;;4931626;29;20098;-74
2021/03/14 00:04:44;;;;;;;14.70;2.35;;;;;;;;;;4937144;28;20031;-75
2021/03/14 00:07:10;;;;;;;14.90;1.90;;;;;;;;;;4930652;28;20024;-74
2021/03/14 00:09:37;;;;;;;17.58;2.45;;;;;;;;;;4929502;28;20043;-75
2021/03/14 00:12:03;;;;;;;10.23;2.03;;;;;;;;;;4927899;28;20470;-73
2021/03/14 00:14:29;;;;;;;14.20;3.40;;;;;;;;;;4935070;28;20058;-75
2021/03/14 00:16:55;;;;;;;17.70;2.90;;;;;;;;;;4928671;28;20046;-76
2021/03/14 00:19:21;;;;;;;13.00;2.00;;;;;;;;;;4932956;29;20035;-75
2021/03/14 00:21:47;;;;;;;14.43;2.15;;;;;;;;;;4939808;28;20318;-75
2021/03/14 00:24:13;;;;;;;14.20;1.85;;;;;;;;;;4928651;28;20035;-75
2021/03/14 00:26:41;;;;;;;16.30;3.17;;;;;;;;;;4932538;28;20028;-76
2021/03/14 00:29:09;;;;;;;16.67;3.22;;;;;;;;;;4956477;28;20042;-75
2021/03/14 00:31:35;;;;;;;14.80;1.80;;;;;;;;;;4943978;28;20039;-75
2021/03/14 00:34:01;;;;;;;8.70;1.90;;;;;;;;;;4953203;28;20042;-75
2021/03/14 00:36:27;;;;;;;19.27;2.50;;;;;;;;;;4951775;28;20032;-75
2021/03/14 00:38:53;;;;;;;11.20;1.90;;;;;;;;;;4930244;28;20122;-76
2021/03/14 00:41:19;;;;;;;16.30;2.05;;;;;;;;;;4926632;29;20059;-75
2021/03/14 00:43:44;;;;;;;13.70;2.80;;;;;;;;;;4942019;28;20470;-75
2021/03/14 00:46:11;;;;;;;15.20;2.35;;;;;;;;;;4936864;28;20438;-75
2021/03/14 00:48:37;;;;;;;22.27;2.85;;;;;;;;;;4929197;28;20126;-75
2021/03/14 00:51:03;;;;;;;12.48;2.13;;;;;;;;;;4945554;28;20106;-76
2021/03/14 00:53:29;;;;;;;16.33;3.45;;;;;;;;;;4952913;28;20036;-75
2021/03/14 00:55:55;;;;;;;15.05;2.35;;;;;;;;;;4955925;28;20041;-76
2021/03/14 00:58:21;;;;;;;17.77;3.15;;;;;;;;;;4935131;28;20089;-75
2021/03/14 01:00:47;;;;;;;14.90;2.53;;;;;;;;;;4942137;28;20387;-76
2021/03/14 01:03:13;;;;;;;11.15;2.28;;;;;;;;;;4946355;28;20028;-75
2021/03/14 01:05:39;;;;;;;18.58;2.17;;;;;;;;;;4930409;28;20036;-75
2021/03/14 01:08:05;;;;;;;23.75;3.38;;;;;;;;;;4944163;28;20401;-76
2021/03/14 01:10:31;;;;;;;22.05;3.17;;;;;;;;;;4936337;28;20398;-76
2021/03/14 01:12:57;;;;;;;9.27;2.20;;;;;;;;;;4941707;28;20035;-75
2021/03/14 01:15:23;;;;;;;19.77;2.88;;;;;;;;;;4937557;28;20035;-76
2021/03/14 01:17:49;;;;;;;9.10;2.42;;;;;;;;;;4928804;28;20039;-76
2021/03/14 01:20:17;;;;;;;11.23;2.83;;;;;;;;;;4930295;28;20028;-76
2021/03/14 01:22:43;;;;;;;18.20;2.22;;;;;;;;;;4935490;28;20107;-75
2021/03/14 01:25:09;;;;;;;10.45;2.10;;;;;;;;;;4949343;28;20031;-75
2021/03/14 01:27:36;;;;;;;17.25;2.38;;;;;;;;;;4949316;28;20401;-76
2021/03/14 01:30:04;;;;;;;12.23;2.25;;;;;;;;;;4946112;28;20040;-76
2021/03/14 01:32:29;;;;;;;14.18;1.98;;;;;;;;;;4932480;29;20106;-75
2021/03/14 01:34:55;;;;;;;17.00;2.92;;;;;;;;;;4949605;28;20552;-75
2021/03/14 01:37:23;;;;;;;18.05;4.00;;;;;;;;;;4948987;28;20063;-76
2021/03/14 01:39:49;;;;;;;13.77;2.30;;;;;;;;;;4943181;28;20081;-76
2021/03/14 01:42:23;;;;;;;15.07;1.90;;;;;;;;;;4942437;29;20461;-76
2021/03/14 01:44:49;;;;;;;12.05;2.05;;;;;;;;;;4940899;28;20030;-76
2021/03/14 01:47:15;;;;;;;10.07;2.38;;;;;;;;;;4944923;28;20498;-76
2021/03/14 01:49:41;;;;;;;15.93;2.42;;;;;;;;;;4947711;28;20110;-76
2021/03/14 01:52:07;;;;;;;15.40;3.65;;;;;;;;;;4949462;28;20042;-76
2021/03/14 01:54:34;;;;;;;14.80;2.53;;;;;;;;;;4947146;28;20396;-75
2021/03/14 01:57:00;;;;;;;13.70;2.35;;;;;;;;;;4938389;29;20035;-76
2021/03/14 01:59:26;;;;;;;9.93;2.65;;;;;;;;;;4949166;28;20114;-76
2021/03/14 02:01:52;;;;;;;20.85;3.33;;;;;;;;;;4934821;28;20027;-76
2021/03/14 02:04:18;;;;;;;19.98;2.72;;;;;;;;;;4949478;28;20027;-76
2021/03/14 02:06:44;;;;;;;17.05;3.03;;;;;;;;;;4933325;28;20080;-75
2021/03/14 02:09:10;;;;;;;30.10;3.38;;;;;;;;;;4934768;29;20078;-75
2021/03/14 02:11:38;;;;;;;10.20;1.80;;;;;;;;;;4941443;28;20031;-76
2021/03/14 02:14:04;;;;;;;14.70;2.40;;;;;;;;;;4941836;28;20047;-75
2021/03/14 02:16:42;;;;;;;14.75;2.10;;;;;;;;;;4935342;28;20044;-76
2021/03/14 02:19:11;;;;;;;11.60;2.45;;;;;;;;;;4945765;28;20028;-76
2021/03/14 02:21:37;;;;;;;10.73;2.03;;;;;;;;;;4961709;28;20023;-76
2021/03/14 02:24:10;;;;;;;17.92;2.53;;;;;;;;;;4962580;28;20031;-75
2021/03/14 02:26:45;;;;;;;20.27;4.32;;;;;;;;;;4934500;29;20080;-76
2021/03/14 02:29:12;;;;;;;12.18;2.00;;;;;;;;;;4949536;28;20039;-76
2021/03/14 02:31:40;;;;;;;12.05;3.08;;;;;;;;;;4938135;28;20058;-76
2021/03/14 02:34:09;;;;;;;14.82;2.63;;;;;;;;;;4956913;28;20118;-76
2021/03/14 02:36:36;;;;;;;10.32;2.28;;;;;;;;;;4951430;28;20572;-76
2021/03/14 02:39:03;;;;;;;17.73;2.33;;;;;;;;;;4956735;28;20034;-76
2021/03/14 02:41:29;;;;;;;21.17;3.38;;;;;;;;;;4933053;28;20032;-75
2021/03/14 02:43:55;;;;;;;17.73;2.42;;;;;;;;;;4941506;28;20576;-76
2021/03/14 02:46:21;;;;;;;14.00;2.58;;;;;;;;;;4957732;28;20031;-75
2021/03/14 02:48:48;;;;;;;19.15;2.65;;;;;;;;;;4943509;28;20036;-75
2021/03/14 02:51:14;;;;;;;13.38;2.03;;;;;;;;;;4928732;29;20533;-75
2021/03/14 02:53:40;;;;;;;16.30;2.30;;;;;;;;;;4947600;28;20042;-75
2021/03/14 02:56:07;;;;;;;15.18;2.30;;;;;;;;;;4949080;28;20238;-76
2021/03/14 02:58:33;;;;;;;13.20;2.35;;;;;;;;;;4948586;28;20033;-75
2021/03/14 03:00:59;;;;;;;12.57;2.05;;;;;;;;;;4949297;28;20093;-76
2021/03/14 03:03:25;;;;;;;12.90;3.08;;;;;;;;;;4934693;28;20036;-76
2021/03/14 03:05:58;;;;;;;14.23;2.15;;;;;;;;;;4940735;28;20027;-75
2021/03/14 03:08:25;;;;;;;11.32;1.70;;;;;;;;;;4930360;28;20042;-76
2021/03/14 03:10:54;;;;;;;11.95;2.60;;;;;;;;;;4954675;28;20939;-76
2021/03/14 03:13:20;;;;;;;12.80;2.65;;;;;;;;;;4944233;28;20054;-75
2021/03/14 03:15:47;;;;;;;13.10;1.88;;;;;;;;;;4948338;28;20102;-75
2021/03/14 03:18:13;;;;;;;12.30;1.85;;;;;;;;;;4949982;28;20469;-76
2021/03/14 03:20:40;;;;;;;11.23;1.85;;;;;;;;;;4951265;28;20118;-76
2021/03/14 03:23:06;;;;;;;12.00;2.00;;;;;;;;;;4953933;28;20028;-75
2021/03/14 03:25:32;;;;;;;20.85;1.67;;;;;;;;;;4943008;28;20038;-75
2021/03/14 03:27:58;;;;;;;14.70;1.70;;;;;;;;;;4948192;28;20031;-76
2021/03/14 03:30:26;;;;;;;8.68;1.75;;;;;;;;;;4948227;28;20040;-76
2021/03/14 03:32:52;;;;;;;11.00;2.10;;;;;;;;;;4935519;29;20081;-75
2021/03/14 03:35:18;;;;;;;12.60;1.83;;;;;;;;;;4949226;28;20035;-75
2021/03/14 03:37:45;;;;;;;10.55;2.00;;;;;;;;;;4950289;28;20501;-76
2021/03/14 03:40:12;;;;;;;13.32;2.03;;;;;;;;;;4959207;28;20084;-76
2021/03/14 03:42:48;;;;;;;6.40;1.88;;;;;;;;;;4962125;28;20027;-75
2021/03/14 03:45:14;;;;;;;12.52;1.95;;;;;;;;;;4948797;28;20385;-76
2021/03/14 03:47:41;;;;;;;9.15;1.88;;;;;;;;;;4936132;28;20059;-76
2021/03/14 03:50:08;;;;;;;15.35;1.65;;;;;;;;;;4941049;28;20040;-76
2021/03/14 03:52:34;;;;;;;16.17;2.95;;;;;;;;;;4947245;28;20047;-76
2021/03/14 03:55:00;;;;;;;9.60;2.15;;;;;;;;;;4937477;28;20508;-76
2021/03/14 03:57:26;;;;;;;12.63;2.13;;;;;;;;;;4937774;28;20396;-76
2021/03/14 03:59:52;;;;;;;17.35;1.88;;;;;;;;;;4940341;28;20031;-75
2021/03/14 04:02:19;;;;;;;11.80;1.92;;;;;;;;;;4959229;28;20157;-76
2021/03/14 04:04:45;;;;;;;14.65;2.50;;;;;;;;;;4934979;28;20055;-76
2021/03/14 04:07:12;;;;;;;15.45;2.30;;;;;;;;;;4932560;28;20039;-76
2021/03/14 04:09:38;;;;;;;13.30;2.70;;;;;;;;;;4945223;28;20106;-76
2021/03/14 04:12:05;;;;;;;10.27;2.17;;;;;;;;;;4940147;28;20039;-76
2021/03/14 04:14:32;;;;;;;11.82;1.95;;;;;;;;;;4960787;28;20023;-76
2021/03/14 04:16:58;;;;;;;10.73;1.95;;;;;;;;;;4946073;28;20150;-76
2021/03/14 04:19:26;;;;;;;13.60;2.47;;;;;;;;;;4969257;29;20102;-76
2021/03/14 04:21:54;;;;;;;15.18;2.03;;;;;;;;;;4969461;28;20019;-76
2021/03/14 04:24:21;;;;;;;12.95;1.63;;;;;;;;;;4970062;28;20044;-76
2021/03/14 04:26:47;;;;;;;6.50;1.27;;;;;;;;;;4959722;28;20036;-76
2021/03/14 04:29:14;;;;;;;11.30;2.47;;;;;;;;;;4956776;28;20047;-75
2021/03/14 04:31:44;;;;;;;7.50;1.48;;;;;;;;;;4970127;28;20027;-77
2021/03/14 04:34:11;;;;;;;9.07;1.63;;;;;;;;;;4969711;28;20035;-76
2021/03/14 04:36:38;;;;;;;10.07;1.38;;;;;;;;;;4970052;28;20059;-76
2021/03/14 04:39:04;;;;;;;8.85;1.75;;;;;;;;;;4969068;28;20031;-76
2021/03/14 04:41:32;;;;;;;8.70;1.50;;;;;;;;;;4969966;28;20079;-76
2021/03/14 04:43:58;;;;;;;24.42;3.97;;;;;;;;;;4969162;28;20007;-76
2021/03/14 04:46:24;;;;;;;9.43;1.48;;;;;;;;;;4962409;28;20007;-75
2021/03/14 04:48:53;;;;;;;12.90;1.92;;;;;;;;;;4975445;28;20091;-75
2021/03/14 04:51:19;;;;;;;10.95;1.73;;;;;;;;;;4972881;28;20027;-75
2021/03/14 04:53:45;;;;;;;13.98;2.83;;;;;;;;;;4973534;28;20043;-75
2021/03/14 04:56:12;;;;;;;10.48;1.63;;;;;;;;;;4972208;28;20041;-75
2021/03/14 04:58:39;;;;;;;15.30;2.15;;;;;;;;;;4973672;28;20069;-75
2021/03/14 05:01:05;;;;;;;13.75;2.25;;;;;;;;;;4986404;28;20031;-75
2021/03/14 05:03:31;;;;;;;17.40;2.45;;;;;;;;;;4965801;28;20047;-75
2021/03/14 05:05:58;;;;;;;13.20;2.13;;;;;;;;;;4946641;29;20028;-75
2021/03/14 05:08:25;;;;;;;12.25;3.28;;;;;;;;;;5019409;28;20031;-75
2021/03/14 05:10:52;;;;;;;8.35;2.35;;;;;;;;;;4949831;28;20035;-75
2021/03/14 05:13:19;;;;;;;14.90;2.40;;;;;;;;;;4952868;28;20516;-75
2021/03/14 05:15:49;;;;;;;10.68;2.15;;;;;;;;;;4953788;28;20523;-75
2021/03/14 05:18:15;;;;;;;12.73;2.30;;;;;;;;;;4931508;29;20039;-75
2021/03/14 05:20:41;;;;;;;12.93;2.20;;;;;;;;;;4942831;28;20442;-75
2021/03/14 05:23:07;;;;;;;10.32;2.22;;;;;;;;;;4946716;28;20085;-75
2021/03/14 05:25:34;;;;;;;12.10;2.13;;;;;;;;;;4968216;28;20039;-75
2021/03/14 05:28:01;;;;;;;12.93;1.80;;;;;;;;;;4936945;29;20032;-75
2021/03/14 05:30:28;;;;;;;19.52;2.70;;;;;;;;;;4937952;28;20474;-75
2021/03/14 05:32:55;;;;;;;15.32;2.75;;;;;;;;;;4936706;29;20038;-75
2021/03/14 05:35:23;;;;;;;8.73;1.80;;;;;;;;;;4948852;28;20035;-76
2021/03/14 05:37:49;;;;;;;22.50;2.60;;;;;;;;;;4949083;28;20031;-75
2021/03/14 05:40:16;;;;;;;19.52;2.50;;;;;;;;;;4949032;28;20042;-75
2021/03/14 05:42:42;;;;;;;13.57;2.42;;;;;;;;;;4948406;28;20027;-75
2021/03/14 05:45:09;;;;;;;11.13;2.65;;;;;;;;;;4948023;28;20031;-75
2021/03/14 05:47:36;;;;;;;24.90;3.60;;;;;;;;;;4948893;28;20043;-75
2021/03/14 05:50:02;;;;;;;17.77;4.50;;;;;;;;;;4940957;28;20520;-75
2021/03/14 05:52:28;;;;;;;9.70;3.25;;;;;;;;;;4931061;28;20032;-75
2021/03/14 05:54:54;;;;;;;14.82;2.97;;;;;;;;;;4950573;28;20453;-76
2021/03/14 05:57:20;;;;;;;16.38;3.10;;;;;;;;;;4936957;28;20077;-75
2021/03/14 05:59:50;;;;;;;11.13;2.53;;;;;;;;;;4949526;28;20030;-75
2021/03/14 06:02:20;;;;;;;13.45;2.72;;;;;;;;;;4958610;28;20038;-75
2021/03/14 06:04:46;;;;;;;12.85;2.75;;;;;;;;;;4946135;28;20039;-75
2021/03/14 06:07:12;;;;;;;16.35;3.25;;;;;;;;;;4936424;28;20027;-75
2021/03/14 06:09:38;;;;;;;15.10;3.17;;;;;;;;;;4944342;28;20069;-74
2021/03/14 06:12:08;;;;;;;10.98;2.88;;;;;;;;;;4942458;28;20027;-74
2021/03/14 06:14:34;;;;;;;15.52;3.58;;;;;;;;;;4944665;28;20393;-74
2021/03/14 06:17:00;;;;;;;16.33;3.35;;;;;;;;;;4939460;28;20046;-74
2021/03/14 06:19:26;;;;;;;15.00;4.07;;;;;;;;;;4946989;29;20035;-74
2021/03/14 06:21:52;;;;;;;11.13;3.42;;;;;;;;;;4947165;28;20027;-75
2021/03/14 06:24:18;;;;;;;13.27;3.90;;;;;;;;;;4949327;28;20571;-74
2021/03/14 06:26:48;;;;;;;26.00;5.28;;;;;;;;;;4948454;28;20508;-74
2021/03/14 06:29:17;;;;;;;21.42;4.00;;;;;;;;;;4959216;28;20031;-74
2021/03/14 06:31:44;;;;;;;14.13;7.35;;;;;;;;;;4929750;29;20519;-74
2021/03/14 06:34:25;;;;;;;13.70;4.38;;;;;;;;;;4940991;29;20031;-74
2021/03/14 06:36:52;;;;;;;13.45;4.82;;;;;;;;;;4952114;28;20049;-74
2021/03/14 06:39:21;;;;;;;19.95;5.10;;;;;;;;;;4932103;28;20393;-74
2021/03/14 06:41:48;;;;;;;14.48;4.10;;;;;;;;;;4939711;28;20106;-74
2021/03/14 06:44:21;;;;;;;14.63;4.18;;;;;;;;;;4934313;28;20023;-74
2021/03/14 06:46:47;;;;;;;14.70;4.18;;;;;;;;;;4937500;28;20329;-74
2021/03/14 06:49:15;;;;;;;21.63;5.45;;;;;;;;;;4930059;28;20043;-74
2021/03/14 06:51:43;;;;;;;20.75;5.15;;;;;;;;;;4929089;28;20027;-74
2021/03/14 06:54:22;;;;;;;14.90;4.70;;;;;;;;;;4927740;28;20032;-74
2021/03/14 06:57:07;;;;;;;17.23;4.85;;;;;;;;;;4943536;28;20105;-74
2021/03/14 06:59:38;;;;;;;16.00;7.07;;;;;;;;;;4931801;28;20039;-75
2021/03/14 07:02:05;;;;;;;12.15;4.32;;;;;;;;;;4951295;28;20470;-74
2021/03/14 07:04:42;;;;;;;17.02;4.53;;;;;;;;;;4942227;28;20038;-74
2021/03/14 07:07:13;;;;;;;20.35;5.60;;;;;;;;;;4946394;28;20118;-74
2021/03/14 07:09:39;;;;;;;13.82;4.80;;;;;;;;;;4934604;28;20044;-74
2021/03/14 07:12:15;;;;;;;20.80;6.07;;;;;;;;;;4940368;28;20036;-75
2021/03/14 07:14:41;;;;;;;17.45;5.10;;;;;;;;;;4940255;28;20059;-74
2021/03/14 07:17:08;;;;;;;16.15;6.32;;;;;;;;;;4929233;28;20047;-74
2021/03/14 07:19:34;;;;;;;12.90;4.00;;;;;;;;;;4947249;28;20027;-74
2021/03/14 07:22:04;;;;;;;18.63;5.90;;;;;;;;;;4958883;28;20091;-75
2021/03/14 07:24:30;;;;;;;;;;;;;;;;;;4948161;28;20027;-74
2021/03/14 07:26:56;;;;;;;21.40;5.35;;;;;;;;;;4957609;28;19959;-74
2021/03/14 07:29:23;;;;;;;12.73;4.28;;;;;;;;;;4966332;28;20344;-74
2021/03/14 07:31:49;;;;;;;13.90;4.05;;;;;;;;;;4942115;28;20036;-74
2021/03/14 07:34:16;;;;;;;15.98;4.85;;;;;;;;;;4946344;28;20092;-74
2021/03/14 07:36:42;;;;;;;15.35;3.97;;;;;;;;;;4947074;28;20027;-74
2021/03/14 07:39:07;;;;;;;20.27;5.35;;;;;;;;;;4946833;28;20031;-74
2021/03/14 07:41:34;;;;;;;12.15;3.97;;;;;;;;;;4940358;28;20195;-74
2021/03/14 07:44:01;;;;;;;16.23;4.00;;;;;;;;;;4927376;29;20028;-74
2021/03/14 07:46:28;;;;;;;17.75;3.85;;;;;;;;;;4945472;28;20034;-75
2021/03/14 07:48:54;;;;;;;10.18;3.95;;;;;;;;;;4935046;28;20501;-74
2021/03/14 07:51:23;;;;;;;11.88;3.55;;;;;;;;;;4944429;28;20034;-75
2021/03/14 07:53:51;;;;;;;19.88;4.90;;;;;;;;;;4947221;28;20081;-74
2021/03/14 07:56:17;;;;;;;12.80;3.88;;;;;;;;;;4930621;28;20038;-74
2021/03/14 07:58:43;;;;;;;12.52;3.63;;;;;;;;;;4931832;28;20027;-74
2021/03/14 08:01:22;;;;;;;13.95;3.80;;;;;;;;;;4927848;28;20023;-75
2021/03/14 08:03:48;;;;;;;12.93;3.20;;;;;;;;;;4930123;28;20083;-74
2021/03/14 08:06:14;;;;;;;10.27;3.33;;;;;;;;;;4930070;28;20443;-74
2021/03/14 08:08:40;;;;;;;13.57;3.30;;;;;;;;;;4931340;28;20405;-74
2021/03/14 08:11:21;;;;;;;14.10;2.90;;;;;;;;;;4931052;28;20028;-74
2021/03/14 08:13:47;;;;;;;9.07;2.00;;;;;;;;;;4927496;28;20036;-74
2021/03/14 08:16:14;;;;;;;11.18;2.33;;;;;;;;;;4927434;29;20055;-74
2021/03/14 08:18:41;;;;;;;14.45;2.50;;;;;;;;;;4939554;29;20042;-74
2021/03/14 08:21:27;;;;;;;16.42;3.15;;;;;;;;;;4953479;28;20077;-74
2021/03/14 08:23:53;;;;;;;16.25;2.67;;;;;;;;;;4941790;28;20116;-74
2021/03/14 08:26:23;;;;;;;12.77;2.15;;;;;;;;;;4938991;28;20067;-74
2021/03/14 08:28:53;;;;;;;18.50;4.13;;;;;;;;;;4927524;29;20401;-74
2021/03/14 08:31:36;;;;;;;16.25;2.75;;;;;;;;;;4930209;29;20390;-74
2021/03/14 08:34:02;;;;;;;15.65;2.55;;;;;;;;;;4928593;28;20038;-74
2021/03/14 08:36:33;;;;;;;13.57;2.85;;;;;;;;;;4929490;29;20085;-74
2021/03/14 08:38:59;;;;;;;11.60;2.35;;;;;;;;;;4924817;28;20097;-74
2021/03/14 08:41:29;;;;;;;10.40;2.30;;;;;;;;;;4930291;28;20035;-74
2021/03/14 08:44:04;;;;;;;11.05;2.17;;;;;;;;;;4931378;28;20046;-75
2021/03/14 08:46:48;;;;;;;14.88;2.63;;;;;;;;;;4925612;28;20036;-75
2021/03/14 08:49:15;;;;;;;11.98;2.53;;;;;;;;;;4927706;28;20027;-76
2021/03/14 08:51:40;;;;;;;16.08;2.95;;;;;;;;;;4934051;28;20023;-75
2021/03/14 08:54:07;;;;;;;16.15;3.10;;;;;;;;;;4943984;28;20082;-75
2021/03/14 08:56:33;;;;;;;19.98;3.05;;;;;;;;;;4943389;28;20504;-75
2021/03/14 08:59:08;;;;;;;21.17;3.13;;;;;;;;;;4929003;28;20472;-75
2021/03/14 09:01:34;;;;;;;15.77;2.17;;;;;;;;;;4932184;28;20153;-75
2021/03/14 09:04:10;;;;;;;11.23;2.67;;;;;;;;;;4926720;28;20035;-76
2021/03/14 09:06:37;;;;;;;15.30;2.42;;;;;;;;;;4932617;28;20031;-77
2021/03/14 09:09:07;;;;;;;16.38;3.00;;;;;;;;;;4928589;28;20031;-76
2021/03/14 09:11:33;;;;;;;;;;;;;;;;;;4933749;28;20023;-76
2021/03/14 09:13:59;;;;;;;13.00;2.50;;;;;;;;;;4930195;28;19922;-76
2021/03/14 09:16:41;;;;;;;16.70;3.30;;;;;;;;;;4929179;28;20040;-75
2021/03/14 09:19:07;;;;;;;16.85;3.03;;;;;;;;;;4929698;28;20043;-75
2021/03/14 09:21:49;;;;;;;12.57;2.17;;;;;;;;;;4928179;28;20020;-76
2021/03/14 09:24:33;;;;;;;15.32;3.10;;;;;;;;;;4934938;28;20024;-76
2021/03/14 09:27:00;;;;;;;8.00;1.95;;;;;;;;;;4927342;28;20032;-76
2021/03/14 09:29:53;;;;;;;10.60;2.33;;;;;;;;;;4935228;28;20031;-75
2021/03/14 09:32:32;;;;;;;16.27;2.15;;;;;;;;;;4949289;28;20142;-75
2021/03/14 09:35:09;;;;;;;12.82;2.97;;;;;;;;;;4940383;28;20111;-76
2021/03/14 09:37:35;;;;;;;17.48;3.05;;;;;;;;;;4933491;28;20019;-76
2021/03/14 09:40:16;;;;;;;15.13;2.38;;;;;;;;;;4940094;28;20564;-76
2021/03/14 09:42:42;;;;;;;11.23;2.47;;;;;;;;;;4945566;28;20050;-76
2021/03/14 09:45:14;;;;;;;12.10;2.20;;;;;;;;;;4933563;28;20043;-75
2021/03/14 09:47:58;;;;;;;15.88;2.83;;;;;;;;;;4939327;28;20031;-75
2021/03/14 09:50:25;;;;;;;14.77;2.22;;;;;;;;;;4935643;28;20370;-76
2021/03/14 09:52:51;;;;;;;14.88;2.65;;;;;;;;;;4934113;28;20052;-76
2021/03/14 09:55:27;;;;;;;11.73;2.75;;;;;;;;;;4932555;28;20148;-76
2021/03/14 09:57:53;;;;;;;7.72;2.33;;;;;;;;;;4930361;28;20040;-76
2021/03/14 10:00:23;;;;;;;15.25;2.83;;;;;;;;;;4935973;28;20019;-76
2021/03/14 10:02:49;;;;;;;14.95;1.98;;;;;;;;;;4937637;28;20591;-76
2021/03/14 10:05:16;;;;;;;13.25;3.30;;;;;;;;;;4941022;28;20249;-75
2021/03/14 10:07:42;;;;;;;10.32;2.70;;;;;;;;;;4943681;28;20481;-75
2021/03/14 10:10:12;;;;;;;13.02;2.08;;;;;;;;;;4933440;28;20786;-76
2021/03/14 10:12:39;;;;;;;15.15;2.47;;;;;;;;;;4937208;28;20562;-76
2021/03/14 10:15:05;;;;;;;15.15;2.42;;;;;;;;;;4947109;28;20042;-75
2021/03/14 10:17:32;;;;;;;11.75;2.50;;;;;;;;;;4942401;28;20036;-75
2021/03/14 10:19:58;;;;;;;12.95;2.38;;;;;;;;;;4943775;28;20054;-75
2021/03/14 10:22:28;;;;;;;13.20;3.50;;;;;;;;;;4944221;28;20039;-75
2021/03/14 10:24:54;;;;;;;17.77;2.55;;;;;;;;;;4940599;28;20039;-77
2021/03/14 10:27:23;;;;;;;15.65;2.67;;;;;;;;;;4943075;28;20027;-78
2021/03/14 10:29:59;;;;;;;14.27;2.67;;;;;;;;;;4936588;28;20027;-77
2021/03/14 10:32:28;;;;;;;8.98;2.67;;;;;;;;;;4937676;28;20039;-78
2021/03/14 10:34:56;;;;;;;17.50;2.90;;;;;;;;;;4942732;28;20024;-78
2021/03/14 10:37:32;;;;;;;10.02;1.70;;;;;;;;;;4940212;28;20498;-77
2021/03/14 10:39:59;;;;;;;12.77;3.25;;;;;;;;;;4940180;28;20038;-77
2021/03/14 10:42:32;;;;;;;16.23;2.38;;;;;;;;;;4936934;28;20027;-77
2021/03/14 10:45:06;;;;;;;13.20;2.75;;;;;;;;;;4932918;28;20032;-77
2021/03/14 10:47:32;;;;;;;11.30;2.42;;;;;;;;;;4936171;28;20035;-77
2021/03/14 10:50:34;;;;;;;11.27;2.63;;;;;;;;;;4940065;28;20086;-78
2021/03/14 10:53:26;;;;;;;14.40;2.85;;;;;;;;;;5010801;28;20037;-77
2021/03/14 10:56:00;;;;;;;8.20;1.95;;;;;;;;;;4938298;28;20412;-78
2021/03/14 10:58:34;;;;;;;10.93;2.47;;;;;;;;;;4937145;28;20481;-77
2021/03/14 11:01:01;;;;;;;11.45;2.78;;;;;;;;;;4945651;28;20169;-77
2021/03/14 11:03:37;;;;;;;12.82;3.15;;;;;;;;;;4941142;28;20106;-78
2021/03/14 11:06:13;;;;;;;10.05;2.33;;;;;;;;;;4933403;28;20035;-77
2021/03/14 11:08:55;;;;;;;15.15;3.63;;;;;;;;;;4941900;28;20043;-77
2021/03/14 11:11:26;;;;;;;21.52;2.80;;;;;;;;;;4943228;28;20451;-78
2021/03/14 11:13:51;;;;;;;9.93;2.90;;;;;;;;;;4942827;28;20053;-78
2021/03/14 11:16:18;;;;;;;10.98;2.90;;;;;;;;;;4936091;28;20040;-77
2021/03/14 11:18:44;;;;;;;12.23;2.20;;;;;;;;;;4936829;28;20027;-78
2021/03/14 11:21:10;;;;;;;16.33;2.60;;;;;;;;;;4938474;28;20039;-77
2021/03/14 11:23:36;;;;;;;17.45;2.75;;;;;;;;;;4937355;29;20027;-77
2021/03/14 11:26:02;;;;;;;13.35;2.25;;;;;;;;;;4936585;28;20392;-77
2021/03/14 11:28:28;;;;;;;11.63;2.22;;;;;;;;;;4947387;28;20023;-77
2021/03/14 11:30:55;;;;;;;11.25;2.15;;;;;;;;;;4938408;28;20027;-77
2021/03/14 11:33:21;;;;;;;12.48;2.63;;;;;;;;;;4938540;28;20027;-77
2021/03/14 11:35:47;;;;;;;16.60;2.53;;;;;;;;;;4934703;28;20032;-77
2021/03/14 11:38:13;;;;;;;16.85;2.78;;;;;;;;;;4937760;28;20109;-77
2021/03/14 11:40:39;;;;;;;18.98;2.28;;;;;;;;;;4939070;28;20034;-77
2021/03/14 11:43:05;;;;;;;9.23;2.22;;;;;;;;;;4936400;28;20031;-78
2021/03/14 11:45:31;;;;;;;13.88;2.70;;;;;;;;;;4944937;28;20031;-77
2021/03/14 11:47:57;;;;;;;14.10;2.60;;;;;;;;;;4938764;28;20045;-77
2021/03/14 11:50:23;;;;;;;12.07;1.95;;;;;;;;;;4941459;28;20038;-76
2021/03/14 11:52:49;;;;;;;8.18;1.65;;;;;;;;;;4942162;28;20024;-76
2021/03/14 11:55:16;;;;;;;14.20;2.33;;;;;;;;;;4935089;28;20085;-75
2021/03/14 11:57:42;;;;;;;9.82;1.95;;;;;;;;;;4938138;28;20576;-75
2021/03/14 12:00:08;;;;;;;14.60;2.35;;;;;;;;;;4941463;28;20031;-75
2021/03/14 12:02:34;;;;;;;10.15;1.90;;;;;;;;;;4941554;28;20055;-75
2021/03/14 12:05:00;;;;;;;9.80;2.80;;;;;;;;;;4934127;28;20026;-75
2021/03/14 12:07:26;;;;;;;16.67;2.35;;;;;;;;;;4942007;28;20499;-75
2021/03/14 12:09:52;;;;;;;14.15;2.28;;;;;;;;;;4945506;28;20503;-75
2021/03/14 12:12:18;;;;;;;13.10;2.42;;;;;;;;;;4946892;28;20035;-75
2021/03/14 12:14:45;;;;;;;10.85;2.08;;;;;;;;;;4946239;28;20027;-75
2021/03/14 12:17:11;;;;;;;14.77;2.60;;;;;;;;;;4946760;28;20385;-75
2021/03/14 12:19:37;;;;;;;18.10;2.13;;;;;;;;;;4934262;28;20039;-75
2021/03/14 12:22:03;;;;;;;15.35;2.60;;;;;;;;;;4941162;28;20497;-75
2021/03/14 12:24:29;;;;;;;13.95;3.00;;;;;;;;;;4936967;28;20034;-75
2021/03/14 12:26:55;;;;;;;11.90;2.15;;;;;;;;;;4947789;28;20040;-74
2021/03/14 12:29:21;;;;;;;7.85;1.60;;;;;;;;;;4938067;28;20066;-75
2021/03/14 12:31:47;;;;;;;15.10;1.98;;;;;;;;;;4943623;28;20470;-75
2021/03/14 12:34:13;;;;;;;9.65;2.03;;;;;;;;;;4941534;28;20035;-75
2021/03/14 12:36:39;;;;;;;15.38;2.03;;;;;;;;;;4938177;28;20035;-75
2021/03/14 12:39:05;;;;;;;9.07;1.67;;;;;;;;;;4943059;28;20124;-75
2021/03/14 12:41:32;;;;;;;10.98;1.85;;;;;;;;;;4946803;28;20057;-75
2021/03/14 12:43:59;;;;;;;9.93;1.70;;;;;;;;;;4945975;28;20481;-75
2021/03/14 12:46:25;;;;;;;13.25;2.17;;;;;;;;;;4946758;28;20110;-76
2021/03/14 12:48:51;;;;;;;17.40;2.65;;;;;;;;;;4945169;28;20127;-75
2021/03/14 12:51:17;;;;;;;10.90;1.67;;;;;;;;;;4931600;28;20034;-76
2021/03/14 12:53:43;;;;;;;13.85;2.40;;;;;;;;;;4946414;28;20046;-76
2021/03/14 12:56:08;;;;;;;15.30;2.28;;;;;;;;;;4946479;28;20066;-76
2021/03/14 12:58:34;;;;;;;13.43;1.88;;;;;;;;;;4946363;28;20118;-76
2021/03/14 13:01:00;;;;;;;16.15;1.98;;;;;;;;;;4932138;28;20034;-76
2021/03/14 13:03:26;;;;;;;16.50;2.00;;;;;;;;;;4946341;28;20031;-76
2021/03/14 13:05:53;;;;;;;13.90;2.70;;;;;;;;;;4941460;28;20042;-76
2021/03/14 13:08:19;;;;;;;15.30;2.03;;;;;;;;;;4942812;28;20062;-76
2021/03/14 13:10:45;;;;;;;13.48;2.42;;;;;;;;;;4942562;28;20038;-74
2021/03/14 13:13:11;;;;;;;11.98;2.33;;;;;;;;;;4938977;28;20035;-74
2021/03/14 13:15:37;;;;;;;14.15;2.20;;;;;;;;;;4947549;28;20023;-74
2021/03/14 13:18:03;;;;;;;17.20;2.47;;;;;;;;;;4940925;28;20032;-76
2021/03/14 13:20:29;;;;;;;10.75;1.80;;;;;;;;;;4949512;28;20153;-75
2021/03/14 13:22:55;;;;;;;19.98;3.65;;;;;;;;;;4949266;28;20082;-75
2021/03/14 13:25:24;;;;;;;16.05;2.45;;;;;;;;;;4936768;28;20492;-75
2021/03/14 13:27:50;;;;;;;14.32;2.63;;;;;;;;;;4947098;28;20035;-75
2021/03/14 13:30:16;;;;;;;13.57;2.78;;;;;;;;;;4948860;28;20039;-74
2021/03/14 13:32:42;;;;;;;15.25;2.53;;;;;;;;;;4949458;28;20030;-74
2021/03/14 13:35:08;;;;;;;10.73;1.67;;;;;;;;;;4949059;28;20039;-74
2021/03/14 13:37:35;;;;;;;15.40;2.30;;;;;;;;;;4948587;28;20055;-74
2021/03/14 13:40:01;;;;;;;12.57;2.40;;;;;;;;;;4949314;28;20092;-75
2021/03/14 13:42:27;;;;;;;13.07;2.28;;;;;;;;;;4947103;28;20038;-75
2021/03/14 13:44:53;;;;;;;16.70;2.63;;;;;;;;;;4949115;28;20031;-75
2021/03/14 13:47:19;;;;;;;13.80;2.75;;;;;;;;;;4947375;28;20032;-74
2021/03/14 13:49:45;;;;;;;11.25;2.30;;;;;;;;;;4948519;28;20062;-75
2021/03/14 13:52:11;;;;;;;11.07;1.70;;;;;;;;;;4947774;28;20031;-74
2021/03/14 13:54:37;;;;;;;18.30;2.17;;;;;;;;;;4947202;28;20031;-75
2021/03/14 13:57:03;;;;;;;11.85;2.30;;;;;;;;;;4942851;28;20035;-75
2021/03/14 13:59:29;;;;;;;19.88;2.47;;;;;;;;;;4944506;28;20035;-75
2021/03/14 14:01:55;;;;;;;23.20;2.75;;;;;;;;;;4940652;28;20486;-75
2021/03/14 14:04:21;;;;;;;16.67;2.22;;;;;;;;;;4940107;28;20162;-75
2021/03/14 14:06:47;;;;;;;11.43;2.45;;;;;;;;;;4941295;28;20028;-75
2021/03/14 14:09:13;;;;;;;12.27;2.60;;;;;;;;;;4942358;28;20038;-75
2021/03/14 14:11:39;;;;;;;15.10;1.65;;;;;;;;;;4945916;28;20031;-75
2021/03/14 14:14:05;;;;;;;12.50;1.98;;;;;;;;;;4932636;28;20042;-75
2021/03/14 14:16:34;;;;;;;17.05;2.95;;;;;;;;;;4941725;28;20094;-77
2021/03/14 14:19:00;;;;;;;10.52;2.08;;;;;;;;;;4940284;28;20050;-76
2021/03/14 14:21:27;;;;;;;16.02;2.10;;;;;;;;;;4939656;28;20678;-75
2021/03/14 14:23:53;;;;;;;14.55;1.80;;;;;;;;;;4937106;28;20578;-75
2021/03/14 14:26:19;;;;;;;10.45;2.13;;;;;;;;;;4942221;28;20023;-76
2021/03/14 14:28:45;;;;;;;11.15;2.33;;;;;;;;;;4947831;28;20228;-76
2021/03/14 14:31:11;;;;;;;12.13;1.98;;;;;;;;;;4945209;28;20503;-76
2021/03/14 14:33:37;;;;;;;16.77;2.75;;;;;;;;;;4937050;28;20032;-75
2021/03/14 14:36:03;;;;;;;12.40;2.00;;;;;;;;;;4950284;28;20267;-75